createdAt,value
2023-04-17T00:01:21.305Z,99.90
2023-04-17T00:03:52.655Z,99.90
2023-04-17T00:06:21.192Z,99.90
2023-04-17T00:08:49.432Z,99.90
2023-04-17T00:11:18.872Z,99.90
2023-04-17T00:13:47.360Z,99.90
2023-04-17T00:16:15.664Z,99.90
2023-04-17T00:18:43.974Z,99.90
2023-04-17T00:21:13.502Z,99.90
2023-04-17T00:23:41.784Z,99.90
2023-04-17T00:26:09.941Z,99.90
2023-04-17T00:28:38.200Z,99.90
2023-04-17T00:31:06.663Z,99.90
2023-04-17T00:33:34.995Z,99.90
2023-04-17T00:36:03.176Z,99.90
2023-04-17T00:38:32.795Z,99.90
2023-04-17T00:41:01.208Z,99.90
2023-04-17T00:43:29.396Z,99.90
2023-04-17T00:45:57.952Z,99.90
2023-04-17T00:48:26.816Z,99.90
2023-04-17T00:50:55.367Z,99.90
2023-04-17T00:53:24.061Z,99.90
2023-04-17T00:55:53.766Z,99.90
2023-04-17T00:58:22.431Z,99.90
2023-04-17T01:00:51.347Z,99.90
2023-04-17T01:03:19.952Z,99.90
2023-04-17T01:05:51.168Z,99.90
2023-04-17T01:08:20.090Z,99.90
2023-04-17T01:10:48.297Z,99.90
2023-04-17T01:13:17.760Z,99.90
2023-04-17T01:15:47.100Z,99.90
2023-04-17T01:18:16.615Z,99.90
2023-04-17T01:20:44.800Z,99.90
2023-04-17T01:23:13.201Z,99.90
2023-04-17T01:25:42.857Z,99.90
2023-04-17T01:28:11.157Z,99.90
2023-04-17T01:30:39.418Z,99.90
2023-04-17T01:33:07.697Z,99.90
2023-04-17T01:35:35.929Z,99.90
2023-04-17T01:38:04.212Z,99.90
2023-04-17T01:40:32.379Z,99.90
2023-04-17T01:43:02.438Z,99.90
2023-04-17T01:45:30.744Z,99.90
2023-04-17T01:48:00.948Z,99.90
2023-04-17T01:50:29.327Z,99.90
2023-04-17T01:52:57.749Z,99.90
2023-04-17T01:55:26.023Z,99.90
2023-04-17T01:57:54.233Z,99.90
2023-04-17T02:00:24.493Z,99.90
2023-04-17T02:02:52.878Z,99.90
2023-04-17T02:05:21.469Z,99.90
2023-04-17T02:07:51.716Z,99.90
2023-04-17T02:10:20.005Z,99.90
2023-04-17T02:12:48.230Z,99.90
2023-04-17T02:15:16.695Z,99.90
2023-04-17T02:17:46.272Z,99.90
2023-04-17T02:20:14.661Z,99.90
2023-04-17T02:22:42.985Z,99.90
2023-04-17T02:25:11.233Z,99.90
2023-04-17T02:27:39.810Z,99.90
2023-04-17T02:30:09.088Z,99.90
2023-04-17T02:32:37.434Z,99.90
2023-04-17T02:35:08.377Z,99.90
2023-04-17T02:37:36.850Z,99.90
2023-04-17T02:40:07.191Z,99.90
2023-04-17T02:42:35.388Z,99.90
2023-04-17T02:45:04.319Z,99.90
2023-04-17T02:47:32.553Z,99.90
2023-04-17T02:50:01.254Z,99.90
2023-04-17T02:52:32.238Z,99.90
2023-04-17T02:55:00.488Z,99.90
2023-04-17T02:57:28.728Z,99.90
2023-04-17T02:59:57.314Z,99.90
2023-04-17T03:02:25.845Z,99.90
2023-04-17T03:04:55.064Z,99.90
2023-04-17T03:07:23.996Z,99.90
2023-04-17T03:09:53.763Z,99.90
2023-04-17T03:12:21.958Z,99.90
2023-04-17T03:14:50.226Z,99.90
2023-04-17T03:17:19.083Z,99.90
2023-04-17T03:19:47.963Z,99.90
2023-04-17T03:22:16.225Z,99.90
2023-04-17T03:24:44.504Z,99.90
2023-04-17T03:27:14.356Z,99.90
2023-04-17T03:29:42.633Z,99.90
2023-04-17T03:32:10.915Z,99.90
2023-04-17T03:34:39.102Z,99.90
2023-04-17T03:37:07.354Z,99.90
2023-04-17T03:39:35.603Z,99.90
2023-04-17T03:42:03.760Z,99.90
2023-04-17T03:44:33.482Z,99.90
2023-04-17T03:47:01.758Z,99.90
2023-04-17T03:49:29.916Z,99.90
2023-04-17T03:51:58.688Z,99.90
2023-04-17T03:54:27.479Z,99.90
2023-04-17T03:56:55.888Z,99.90
2023-04-17T03:59:24.253Z,99.90
2023-04-17T04:01:54.519Z,99.90
2023-04-17T04:04:22.945Z,99.90
2023-04-17T04:06:52.925Z,99.90
2023-04-17T04:09:21.462Z,99.90
2023-04-17T04:11:49.870Z,99.90
2023-04-17T04:14:18.073Z,99.90
2023-04-17T04:16:46.308Z,99.90
2023-04-17T04:19:16.068Z,99.90
2023-04-17T04:21:45.303Z,99.90
2023-04-17T04:24:14.481Z,99.90
2023-04-17T04:26:43.216Z,99.90
2023-04-17T04:29:14.176Z,99.90
2023-04-17T04:31:46.866Z,99.90
2023-04-17T04:34:17.125Z,99.90
2023-04-17T04:36:50.035Z,99.90
2023-04-17T04:39:20.647Z,99.90
2023-04-17T04:41:50.663Z,99.90
2023-04-17T04:44:19.151Z,99.90
2023-04-17T04:46:47.964Z,99.90
2023-04-17T04:49:17.600Z,99.90
2023-04-17T04:51:45.893Z,99.90
2023-04-17T04:54:14.148Z,99.90
2023-04-17T04:56:44.930Z,99.90
2023-04-17T04:59:13.284Z,99.90
2023-04-17T05:01:41.967Z,99.90
2023-04-17T05:04:10.540Z,99.90
2023-04-17T05:06:40.159Z,99.90
2023-04-17T05:09:08.599Z,99.90
2023-04-17T05:11:36.967Z,99.90
2023-04-17T05:14:05.405Z,99.90
2023-04-17T05:16:33.988Z,99.90
2023-04-17T05:19:02.265Z,99.90
2023-04-17T05:21:31.364Z,99.90
2023-04-17T05:24:01.089Z,99.90
2023-04-17T05:26:29.361Z,99.90
2023-04-17T05:28:57.656Z,99.90
2023-04-17T05:31:26.484Z,99.90
2023-04-17T05:33:54.838Z,99.90
2023-04-17T05:36:23.465Z,99.90
2023-04-17T05:38:51.885Z,99.90
2023-04-17T05:41:21.664Z,99.90
2023-04-17T05:43:50.970Z,99.90
2023-04-17T05:46:19.257Z,99.90
2023-04-17T05:48:47.555Z,99.90
2023-04-17T05:51:16.152Z,99.90
2023-04-17T05:53:44.935Z,99.90
2023-04-17T05:56:13.217Z,99.90
2023-04-17T05:58:42.818Z,99.90
2023-04-17T06:01:13.061Z,99.90
2023-04-17T06:03:41.743Z,99.90
2023-04-17T06:06:10.115Z,99.90
2023-04-17T06:08:38.344Z,99.90
2023-04-17T06:11:06.853Z,99.90
2023-04-17T06:13:35.074Z,99.90
2023-04-17T06:16:04.808Z,99.90
2023-04-17T06:18:33.019Z,99.90
2023-04-17T06:21:01.326Z,99.90
2023-04-17T06:23:29.656Z,99.90
2023-04-17T06:25:57.900Z,99.90
2023-04-17T06:28:26.089Z,99.90
2023-04-17T06:30:54.613Z,99.90
2023-04-17T06:33:26.509Z,99.90
2023-04-17T06:35:55.004Z,99.90
2023-04-17T06:38:23.212Z,99.90
2023-04-17T06:40:52.711Z,99.90
2023-04-17T06:43:21.197Z,99.90
2023-04-17T06:45:49.805Z,99.90
2023-04-17T06:48:18.070Z,99.90
2023-04-17T06:50:47.733Z,99.90
2023-04-17T06:53:15.949Z,99.90
2023-04-17T06:55:45.208Z,99.90
2023-04-17T06:58:14.386Z,99.90
2023-04-17T07:00:42.708Z,99.90
2023-04-17T07:03:11.278Z,99.90
2023-04-17T07:05:39.506Z,99.90
2023-04-17T07:08:09.196Z,99.90
2023-04-17T07:10:37.532Z,99.90
2023-04-17T07:13:05.697Z,99.90
2023-04-17T07:15:34.142Z,99.90
2023-04-17T07:18:02.521Z,99.90
2023-04-17T07:20:30.800Z,99.90
2023-04-17T07:22:59.164Z,99.90
2023-04-17T07:25:28.979Z,99.90
2023-04-17T07:27:57.269Z,99.90
2023-04-17T07:30:25.938Z,99.90
2023-04-17T07:32:54.283Z,99.90
2023-04-17T07:35:23.272Z,99.90
2023-04-17T07:37:52.086Z,99.90
2023-04-17T07:40:20.412Z,99.90
2023-04-17T07:42:49.857Z,99.90
2023-04-17T07:45:18.254Z,99.90
2023-04-17T07:47:47.300Z,99.90
2023-04-17T07:50:15.637Z,99.90
2023-04-17T07:52:43.949Z,99.90
2023-04-17T07:55:12.316Z,99.90
2023-04-17T07:57:43.818Z,99.90
2023-04-17T08:00:15.018Z,99.90
2023-04-17T08:02:43.621Z,99.90
2023-04-17T08:05:12.525Z,99.90
2023-04-17T08:07:41.401Z,99.90
2023-04-17T08:10:10.589Z,99.90
2023-04-17T08:12:38.842Z,99.90
2023-04-17T08:15:08.361Z,99.90
2023-04-17T08:17:38.056Z,99.90
2023-04-17T08:20:12.190Z,99.70
2023-04-17T08:22:41.515Z,99.90
2023-04-17T08:25:10.786Z,99.70
2023-04-17T08:27:40.001Z,99.40
2023-04-17T08:30:12.683Z,98.40
2023-04-17T08:32:45.813Z,98.60
2023-04-17T08:35:15.681Z,99.20
2023-04-17T08:37:46.918Z,97.90
2023-04-17T08:40:17.181Z,97.80
2023-04-17T08:42:47.942Z,97.70
2023-04-17T08:45:16.497Z,97.90
2023-04-17T08:47:46.343Z,96.40
2023-04-17T08:50:16.564Z,95.90
2023-04-17T08:52:46.487Z,95.70
2023-04-17T08:55:18.380Z,95.30
2023-04-17T08:58:01.252Z,94.60
2023-04-17T09:00:32.057Z,94.60
2023-04-17T09:03:03.755Z,93.40
2023-04-17T09:05:34.050Z,93.30
2023-04-17T09:08:11.242Z,92.30
2023-04-17T09:10:40.787Z,92.40
2023-04-17T09:13:09.906Z,91.50
2023-04-17T09:15:38.931Z,91.40
2023-04-17T09:18:23.141Z,91.50
2023-04-17T09:20:52.334Z,91.30
2023-04-17T09:23:22.687Z,90.50
2023-04-17T09:26:07.926Z,88.90
2023-04-17T09:28:39.153Z,90.20
2023-04-17T09:31:10.258Z,87.20
2023-04-17T09:33:58.021Z,88.00
2023-04-17T09:36:27.551Z,84.60
2023-04-17T09:38:55.972Z,86.70
2023-04-17T09:41:25.521Z,86.50
2023-04-17T09:43:55.068Z,84.80
2023-04-17T09:46:34.052Z,84.20
2023-04-17T09:49:09.344Z,83.50
2023-04-17T09:51:37.825Z,81.40
2023-04-17T09:54:07.985Z,82.50
2023-04-17T09:56:38.030Z,82.10
2023-04-17T09:59:07.157Z,82.80
2023-04-17T10:01:37.825Z,82.80
2023-04-17T10:04:08.162Z,82.70
2023-04-17T10:06:37.247Z,80.80
2023-04-17T10:09:05.919Z,80.60
2023-04-17T10:11:38.085Z,80.10
2023-04-17T10:14:12.954Z,78.70
2023-04-17T10:16:42.929Z,75.80
2023-04-17T10:19:38.647Z,73.20
2023-04-17T10:22:41.243Z,75.40
2023-04-17T10:25:20.594Z,70.50
2023-04-17T10:27:59.469Z,69.10
2023-04-17T10:30:50.831Z,67.40
2023-04-17T10:33:28.660Z,71.30
2023-04-17T10:35:58.264Z,64.90
2023-04-17T10:38:34.447Z,64.90
2023-04-17T10:41:05.067Z,63.70
2023-04-17T10:43:33.340Z,64.10
2023-04-17T10:46:06.956Z,64.90
2023-04-17T10:48:38.631Z,63.10
2023-04-17T10:51:43.200Z,61.10
2023-04-17T10:54:13.793Z,60.70
2023-04-17T10:56:44.918Z,59.50
2023-04-17T10:59:14.339Z,60.10
2023-04-17T11:02:01.184Z,60.10
2023-04-17T11:04:31.578Z,60.30
2023-04-17T11:07:02.036Z,58.70
2023-04-17T11:09:30.517Z,58.70
2023-04-17T11:12:02.461Z,56.50
2023-04-17T11:14:30.903Z,57.80
2023-04-17T11:16:59.311Z,58.40
2023-04-17T11:19:28.897Z,56.20
2023-04-17T11:21:58.928Z,56.60
2023-04-17T11:24:30.200Z,56.50
2023-04-17T11:27:01.122Z,55.70
2023-04-17T11:29:29.606Z,56.70
2023-04-17T11:31:59.188Z,56.80
2023-04-17T11:34:28.092Z,57.70
2023-04-17T11:36:58.250Z,56.80
2023-04-17T11:39:29.994Z,57.20
2023-04-17T11:41:58.584Z,56.60
2023-04-17T11:44:27.439Z,55.10
2023-04-17T11:46:58.456Z,55.00
2023-04-17T11:49:27.647Z,53.60
2023-04-17T11:51:58.213Z,53.70
2023-04-17T11:54:32.191Z,53.70
2023-04-17T11:57:01.667Z,54.40
2023-04-17T11:59:33.894Z,53.90
2023-04-17T12:02:02.849Z,54.00
2023-04-17T12:04:34.208Z,52.90
2023-04-17T12:07:03.463Z,54.50
2023-04-17T12:09:33.838Z,54.30
2023-04-17T12:12:03.581Z,54.30
2023-04-17T12:14:32.036Z,53.80
2023-04-17T12:17:01.216Z,53.20
2023-04-17T12:19:31.758Z,52.20
2023-04-17T12:22:00.467Z,51.70
2023-04-17T12:24:28.741Z,52.30
2023-04-17T12:27:00.304Z,52.50
2023-04-17T12:29:40.534Z,53.50
2023-04-17T12:32:11.588Z,52.00
2023-04-17T12:34:39.889Z,51.50
2023-04-17T12:37:08.082Z,51.00
2023-04-17T12:39:36.353Z,50.60
2023-04-17T12:42:06.199Z,50.40
2023-04-17T12:44:34.482Z,50.40
2023-04-17T12:47:02.668Z,51.50
2023-04-17T12:49:31.014Z,52.40
2023-04-17T12:52:01.051Z,51.10
2023-04-17T12:54:31.415Z,51.00
2023-04-17T12:57:00.149Z,50.20
2023-04-17T12:59:29.740Z,49.80
2023-04-17T13:01:58.127Z,51.40
2023-04-17T13:04:26.687Z,51.60
2023-04-17T13:06:54.960Z,51.50
2023-04-17T13:09:23.247Z,52.60
2023-04-17T13:11:51.608Z,52.80
2023-04-17T13:14:19.802Z,54.20
2023-04-17T13:16:50.816Z,55.30
2023-04-17T13:19:19.930Z,55.20
2023-04-17T13:21:48.146Z,56.20
2023-04-17T13:24:16.466Z,56.50
2023-04-17T13:26:44.928Z,55.00
2023-04-17T13:29:13.325Z,56.80
2023-04-17T13:31:42.015Z,58.50
2023-04-17T13:34:12.172Z,59.90
2023-04-17T13:36:40.867Z,60.30
2023-04-17T13:39:09.900Z,59.50
2023-04-17T13:41:38.602Z,60.30
2023-04-17T13:44:06.809Z,60.60
2023-04-17T13:46:36.060Z,60.00
2023-04-17T13:49:04.376Z,59.40
2023-04-17T13:51:33.998Z,59.20
2023-04-17T13:54:02.255Z,58.30
2023-04-17T13:56:30.792Z,59.90
2023-04-17T13:58:59.741Z,58.70
2023-04-17T14:01:28.051Z,57.00
2023-04-17T14:03:56.419Z,57.90
2023-04-17T14:06:24.704Z,58.80
2023-04-17T14:08:54.766Z,59.00
2023-04-17T14:11:23.142Z,59.70
2023-04-17T14:13:51.490Z,59.90
2023-04-17T14:16:19.883Z,59.80
2023-04-17T14:18:49.304Z,59.00
2023-04-17T14:21:17.852Z,58.90
2023-04-17T14:23:46.459Z,59.80
2023-04-17T14:26:16.136Z,60.80
2023-04-17T14:28:44.402Z,60.40
2023-04-17T14:31:12.736Z,59.30
2023-04-17T14:33:40.934Z,59.30
2023-04-17T14:36:09.554Z,59.60
2023-04-17T14:38:38.068Z,59.40
2023-04-17T14:41:06.229Z,57.80
2023-04-17T14:43:35.864Z,57.80
2023-04-17T14:46:04.307Z,57.50
2023-04-17T14:48:36.183Z,57.80
2023-04-17T14:51:14.162Z,59.30
2023-04-17T14:53:42.554Z,58.50
2023-04-17T14:56:10.916Z,57.90
2023-04-17T14:58:40.571Z,58.00
2023-04-17T15:01:08.728Z,60.30
2023-04-17T15:03:37.314Z,58.10
2023-04-17T15:06:06.169Z,58.20
2023-04-17T15:08:34.298Z,58.30
2023-04-17T15:11:02.555Z,59.70
2023-04-17T15:13:30.938Z,60.20
2023-04-17T15:16:00.472Z,61.00
2023-04-17T15:18:28.789Z,61.20
2023-04-17T15:20:57.226Z,62.60
2023-04-17T15:23:26.821Z,61.70
2023-04-17T15:25:55.489Z,62.40
2023-04-17T15:28:23.790Z,60.60
2023-04-17T15:30:51.991Z,61.60
2023-04-17T15:33:21.683Z,63.40
2023-04-17T15:35:56.117Z,61.60
2023-04-17T15:38:24.515Z,62.80
2023-04-17T15:40:52.737Z,62.50
2023-04-17T15:43:21.922Z,62.80
2023-04-17T15:45:50.542Z,63.90
2023-04-17T15:48:18.974Z,63.50
2023-04-17T15:50:48.682Z,64.40
2023-04-17T15:53:16.946Z,65.90
2023-04-17T15:55:45.142Z,65.20
2023-04-17T15:58:13.387Z,65.60
2023-04-17T16:00:41.585Z,66.20
2023-04-17T16:03:09.973Z,65.70
2023-04-17T16:05:38.263Z,66.70
2023-04-17T16:08:07.835Z,67.70
2023-04-17T16:10:36.390Z,67.60
2023-04-17T16:13:04.734Z,67.00
2023-04-17T16:15:33.297Z,67.20
2023-04-17T16:18:01.760Z,66.10
2023-04-17T16:20:30.852Z,65.90
2023-04-17T16:22:59.192Z,66.10
2023-04-17T16:25:28.846Z,66.50
2023-04-17T16:27:57.101Z,66.30
2023-04-17T16:30:25.569Z,66.70
2023-04-17T16:32:53.723Z,66.30
2023-04-17T16:35:22.249Z,66.70
2023-04-17T16:37:50.542Z,67.90
2023-04-17T16:40:19.822Z,68.80
2023-04-17T16:42:49.568Z,70.10
2023-04-17T16:45:17.898Z,68.90
2023-04-17T16:47:46.137Z,68.50
2023-04-17T16:50:14.497Z,69.30
2023-04-17T16:52:45.565Z,70.00
2023-04-17T16:55:13.860Z,70.10
2023-04-17T16:57:43.896Z,70.90
2023-04-17T17:00:14.819Z,69.90
2023-04-17T17:02:43.194Z,70.00
2023-04-17T17:05:11.823Z,68.70
2023-04-17T17:07:40.361Z,68.90
2023-04-17T17:10:09.958Z,68.80
2023-04-17T17:12:38.654Z,68.10
2023-04-17T17:15:08.356Z,68.40
2023-04-17T17:17:37.994Z,68.20
2023-04-17T17:20:07.483Z,70.00
2023-04-17T17:22:35.688Z,70.20
2023-04-17T17:25:03.925Z,71.00
2023-04-17T17:27:32.189Z,69.00
2023-04-17T17:30:00.775Z,68.90
2023-04-17T17:32:29.101Z,69.30
2023-04-17T17:34:59.482Z,70.10
2023-04-17T17:37:27.852Z,70.70
2023-04-17T17:39:56.009Z,70.60
2023-04-17T17:42:24.325Z,71.60
2023-04-17T17:44:52.631Z,72.10
2023-04-17T17:47:20.927Z,73.20
2023-04-17T17:49:49.700Z,73.90
2023-04-17T17:52:19.436Z,74.50
2023-04-17T17:54:47.603Z,75.30
2023-04-17T17:57:15.962Z,76.40
2023-04-17T17:59:45.010Z,75.80
2023-04-17T18:02:13.262Z,76.90
2023-04-17T18:04:42.457Z,78.20
2023-04-17T18:07:10.944Z,77.90
2023-04-17T18:09:40.508Z,78.90
2023-04-17T18:12:08.992Z,80.80
2023-04-17T18:14:37.343Z,81.20
2023-04-17T18:17:05.489Z,82.90
2023-04-17T18:19:34.158Z,82.60
2023-04-17T18:22:02.466Z,84.70
2023-04-17T18:24:31.817Z,86.10
2023-04-17T18:27:02.501Z,87.30
2023-04-17T18:29:31.375Z,87.50
2023-04-17T18:31:59.646Z,88.70
2023-04-17T18:34:28.050Z,90.20
2023-04-17T18:36:58.542Z,91.20
2023-04-17T18:39:26.843Z,91.80
2023-04-17T18:41:55.135Z,93.00
2023-04-17T18:44:24.837Z,94.80
2023-04-17T18:46:53.093Z,96.70
2023-04-17T18:49:21.427Z,95.80
2023-04-17T18:51:50.246Z,96.50
2023-04-17T18:54:19.253Z,96.80
2023-04-17T18:56:47.608Z,97.90
2023-04-17T18:59:15.903Z,99.30
2023-04-17T19:01:45.534Z,99.90
2023-04-17T19:04:14.107Z,99.90
2023-04-17T19:06:42.748Z,99.90
2023-04-17T19:09:11.009Z,99.90
2023-04-17T19:11:39.343Z,99.90
2023-04-17T19:14:07.649Z,99.90
2023-04-17T19:16:35.928Z,99.90
2023-04-17T19:19:05.815Z,99.90
2023-04-17T19:21:34.640Z,99.90
2023-04-17T19:24:02.798Z,99.90
2023-04-17T19:26:31.212Z,99.90
2023-04-17T19:28:59.940Z,99.90
2023-04-17T19:31:28.106Z,99.90
2023-04-17T19:33:57.538Z,99.90
2023-04-17T19:36:27.494Z,99.90
2023-04-17T19:38:55.797Z,99.90
2023-04-17T19:41:24.131Z,99.90
2023-04-17T19:43:54.234Z,99.90
2023-04-17T19:46:24.357Z,99.90
2023-04-17T19:48:52.974Z,99.90
2023-04-17T19:51:21.132Z,99.90
2023-04-17T19:53:53.263Z,99.90
2023-04-17T19:56:21.467Z,99.90
2023-04-17T19:58:49.670Z,99.90
2023-04-17T20:01:18.031Z,99.90
2023-04-17T20:03:46.494Z,99.90
2023-04-17T20:06:14.970Z,99.90
2023-04-17T20:08:43.319Z,99.90
2023-04-17T20:11:13.167Z,99.90
2023-04-17T20:13:41.508Z,99.90
2023-04-17T20:16:10.185Z,99.90
2023-04-17T20:18:38.425Z,99.90
2023-04-17T20:21:07.187Z,99.90
2023-04-17T20:23:35.825Z,99.90
2023-04-17T20:26:04.121Z,99.90
2023-04-17T20:28:33.713Z,99.90
2023-04-17T20:31:02.081Z,99.90
2023-04-17T20:33:30.562Z,99.90
2023-04-17T20:35:58.916Z,99.90
2023-04-17T20:38:27.310Z,99.90
2023-04-17T20:40:55.603Z,99.90
2023-04-17T20:43:23.897Z,99.90
2023-04-17T20:45:53.534Z,99.90
2023-04-17T20:48:23.505Z,99.90
2023-04-17T20:50:51.932Z,99.90
2023-04-17T20:53:20.129Z,99.90
2023-04-17T20:55:48.541Z,99.90
2023-04-17T20:58:16.769Z,99.90
2023-04-17T21:00:58.325Z,99.90
2023-04-17T21:03:32.022Z,99.90
2023-04-17T21:06:00.860Z,99.90
2023-04-17T21:08:29.117Z,99.90
2023-04-17T21:10:57.475Z,99.90
2023-04-17T21:13:25.694Z,99.90
2023-04-17T21:15:53.933Z,99.90
2023-04-17T21:18:22.193Z,99.90
2023-04-17T21:20:52.137Z,99.90
2023-04-17T21:23:20.557Z,99.90
2023-04-17T21:25:51.807Z,99.90
2023-04-17T21:28:20.180Z,99.90
2023-04-17T21:30:48.470Z,99.90
2023-04-17T21:33:16.911Z,99.90
2023-04-17T21:35:45.483Z,99.90
2023-04-17T21:38:15.290Z,99.90
2023-04-17T21:40:50.877Z,99.90
2023-04-17T21:43:19.951Z,99.90
2023-04-17T21:45:48.327Z,99.90
2023-04-17T21:48:16.720Z,99.90
2023-04-17T21:50:45.179Z,99.90
2023-04-17T21:53:15.045Z,99.90
2023-04-17T21:55:43.288Z,99.90
2023-04-17T21:58:11.559Z,99.90
2023-04-17T22:00:39.958Z,99.90
2023-04-17T22:03:08.260Z,99.90
2023-04-17T22:05:36.996Z,99.90
2023-04-17T22:08:05.379Z,99.90
2023-04-17T22:10:34.995Z,99.90
2023-04-17T22:13:03.520Z,99.90
2023-04-17T22:15:32.047Z,99.90
2023-04-17T22:18:00.333Z,99.90
2023-04-17T22:20:28.899Z,99.90
2023-04-17T22:22:57.061Z,99.90
2023-04-17T22:25:25.276Z,99.90
2023-04-17T22:27:55.270Z,99.90
2023-04-17T22:30:23.741Z,99.90
2023-04-17T22:32:52.067Z,99.90
2023-04-17T22:35:20.596Z,99.90
2023-04-17T22:37:49.255Z,99.90
2023-04-17T22:40:17.650Z,99.90
2023-04-17T22:42:46.138Z,99.90
2023-04-17T22:45:15.655Z,99.90
2023-04-17T22:47:44.042Z,99.90
2023-04-17T22:50:14.419Z,99.90
2023-04-17T22:52:42.606Z,99.90
2023-04-17T22:55:11.032Z,99.90
2023-04-17T22:57:39.446Z,99.90
2023-04-17T23:00:09.802Z,99.90
2023-04-17T23:02:39.493Z,99.90
2023-04-17T23:05:08.874Z,99.90
2023-04-17T23:07:37.227Z,99.90
2023-04-17T23:10:06.208Z,99.90
2023-04-17T23:12:34.575Z,99.90
2023-04-17T23:15:02.930Z,99.90
2023-04-17T23:17:31.240Z,99.90
2023-04-17T23:20:01.007Z,99.90
2023-04-17T23:22:29.291Z,99.90
2023-04-17T23:24:58.481Z,99.90
2023-04-17T23:27:26.887Z,99.90
2023-04-17T23:29:55.048Z,99.90
2023-04-17T23:32:23.591Z,99.90
2023-04-17T23:34:51.998Z,99.90
2023-04-17T23:37:21.704Z,99.90
2023-04-17T23:39:49.992Z,99.90
2023-04-17T23:42:18.253Z,99.90
2023-04-17T23:44:46.412Z,99.90
2023-04-17T23:47:15.043Z,99.90
2023-04-17T23:49:43.346Z,99.90
2023-04-17T23:52:11.454Z,99.90
2023-04-17T23:54:41.099Z,99.90
2023-04-17T23:57:09.483Z,99.90
2023-04-17T23:59:37.938Z,99.90
